Close

Questo sito utlizza cookie. Può leggere come li usiamo nella nostra Privacy Policy.

Ronchi Tower
Ronchi Tower

From Facebook

METAR & TAF

2019/09/23 04:50 LIPQ 230450Z VRB02KT 8000 SCT025 BKN055 15/15 Q1013
2019/09/23 06:21 TAF LIPQ 230500Z 2306/2406 VRB05KT 9999 BKN040 TEMPO 2312/2321 3000 TSRA
2019/09/23 04:50 LIPZ 230450Z 31005KT 290V350 9000 FEW040 BKN055 15/12 Q1013 NOSIG
2019/09/23 06:21 TAF LIPZ 230500Z 2306/2412 VRB05KT 9999 SCT030 TEMPO 2309/2318 3000 TSRA
2019/09/23 04:50 LIPH 230450Z AUTO VRB02KT 9999 OVC051/// 15/13 Q1013
2019/09/23 06:21 TAF LIPH 230500Z 2306/2406 VRB05KT 9999 SCT030 BKN060 TEMPO 2312/2318 4000 TSRA
2019/09/23 04:50 LIRF 230450Z 12004KT 9999 SCT025 SCT035 18/17 Q1013 NOSIG
2019/09/23 06:21 TAF LIRF 230500Z 2306/2412 VRB05KT 9999 SCT030 BECMG 2309/2311 24012KT TEMPO 2311/2318 TSRA BECMG 2320/2322 33008KT
2019/09/19 08:50 LIML 190850Z VRB03KT 150V250 9999 SCT010 SCT060 16/14 Q1020 NOSIG
2019/07/26 18:21 TAF LIML 261700Z 2618/2718 VRB05KT 9999 SCT050 TEMPO 2709/2718 3000 TSRA SCT010CB BKN040
2019/09/23 05:20 EDDM 230520Z 27007KT 9999 FEW016 BKN021 14/12 Q1014 TEMPO BKN012
2019/09/22 18:27 TAF EDDM 221700Z 2218/2324 VRB02KT CAVOK TEMPO 2223/2305 2000 BR BECMG 2306/2308 27011KT TEMPO 2308/2318 RA BKN012 PROB30 TEMPO 2308/2310 BKN009 BECMG 2317/2319 24006KT
2019/09/23 04:50 EGSS 230450Z AUTO 22007KT 9999 OVC011 13/13 Q1009
2019/09/23 06:06 TAF EGSS 230501Z 2306/2412 19007KT 9999 BKN010 BECMG 2306/2309 FEW017 PROB30 2306/2307 6000 BKN007 TEMPO 2318/2402 5000 RA -RADZ BECMG 2320/2323 BKN012 TEMPO 2323/2408 3000 BR BKN004 PROB40 2402/2408 +SHRA BKN001 BKN015CB TEMPO 2408/2412 3000 +RA +SHRA BKN004 BKN015CB PROB30 TEMPO 2408/2412 18022G33KT 1400 SQ +SHGR BECMG 2409/2412 SCT015
2019/09/23 05:20 EDDF 230520Z 20008KT 9999 -RA FEW004 SCT017 14/14 Q1014 TEMPO 4000 RA
2019/09/22 18:28 TAF EDDF 221700Z 2218/2324 VRB03KT CAVOK BECMG 2223/2302 23007KT BKN040 TEMPO 2301/2311 4000 RA OVC014 PROB30 TEMPO 2303/2309 BKN006 BECMG 2312/2315 SCT020

FlightRadar24

Radar Meteo

Traffic data

Agosto 2018

Passeggeri: 63892-12,9% (rank: 23)
Nazionali 34490 -19,8%
Internazionali 29193 -3,0%

Movimenti: 1307+11,7% (rank: 24)
Tot commerciale 556 -7,2%
Aviazione generale 751 +31,5%

Cargo (tons): 20,6+62,5% (rank: 21)

Gennaio - Agosto 2018

Passeggeri: 507438-3,5% (rank: 23)
Nazionali 322655 -4,9%
Internazionali 182927 -0,7%

Movimenti: 10366-4,25 (rank: 22)
Tot commerciale 5328 -11,0%
Aviazione generale 5038 +4,2%

Cargo (tons): 299,2+61,9% (rank: 20)

Photo

Douglas DC-6B
Douglas DC-6B
Distinct views: 15
Douglas DC-6B
Douglas DC-6B
Distinct views: 73
Douglas DC-6B
Douglas DC-6B
Distinct views: 195
ATR ATR-72
ATR ATR-72
Total views: 1686